Time;durP1;ratioP1;P1;durP2;ratioP2;P2;SDS_P1;SDS_P2;PMS_P1;PMS_P2;Temp;Humidity;BMP_temperature;BMP_pressure;BME280_temperature;BME280_humidity;BME280_pressure;Samples;Min_cycle;Max_cycle;Signal;HPM_P1;HPM_P2
2023/02/25 00:01:42;;;;;;;76.90;46.80;;;;;;;6.41;74.38;96986.95;108934;1251;94228;-71
2023/02/25 00:04:30;;;;;;;79.00;49.60;;;;;;;6.40;74.46;96978.20;108905;1252;109880;-71
2023/02/25 00:06:58;;;;;;;82.50;50.80;;;;;;;6.41;74.47;96971.11;108901;1251;102233;-68
2023/02/25 00:09:27;;;;;;;75.50;47.00;;;;;;;6.42;74.31;96973.52;108886;1251;107658;-71
2023/02/25 00:11:54;;;;;;;78.30;47.80;;;;;;;6.41;74.51;96967.59;108911;1251;94275;-70
2023/02/25 00:14:22;;;;;;;82.60;49.50;;;;;;;6.41;74.30;96964.44;108948;1251;94336;-71
2023/02/25 00:16:50;;;;;;;79.10;47.60;;;;;;;6.39;74.25;96955.42;108971;1251;109626;-71
2023/02/25 00:19:18;;;;;;;75.60;48.00;;;;;;;6.37;74.20;96952.45;108901;1253;102299;-70
2023/02/25 00:21:45;;;;;;;81.60;49.90;;;;;;;6.35;74.41;96952.84;108919;1251;107252;-71
2023/02/25 00:24:14;;;;;;;80.30;50.10;;;;;;;6.32;74.35;96941.27;108914;1251;94205;-71
2023/02/25 00:26:44;;;;;;;83.70;51.00;;;;;;;6.33;74.40;96934.33;108920;1252;94930;-70
2023/02/25 00:29:11;;;;;;;69.60;43.80;;;;;;;6.34;74.27;96935.08;108907;1253;109330;-70
2023/02/25 00:31:40;;;;;;;73.50;43.10;;;;;;;6.36;74.51;96927.58;108882;1251;102238;-70
2023/02/25 00:34:08;;;;;;;78.70;48.20;;;;;;;6.37;74.80;96923.27;108845;1253;107170;-70
2023/02/25 00:36:36;;;;;;;79.30;50.40;;;;;;;6.39;74.66;96917.23;108851;1254;94233;-70
2023/02/25 00:39:04;;;;;;;78.00;48.90;;;;;;;6.40;74.54;96909.17;108919;1251;94241;-70
2023/02/25 00:41:32;;;;;;;82.00;49.90;;;;;;;6.42;74.54;96908.20;108928;1251;109795;-71
2023/02/25 00:44:01;;;;;;;76.20;46.40;;;;;;;6.43;74.54;96906.70;108913;1254;102209;-70
2023/02/25 00:46:30;;;;;;;79.20;47.70;;;;;;;6.44;74.59;96903.83;108880;1251;107367;-70
2023/02/25 00:48:58;;;;;;;77.10;48.10;;;;;;;6.45;74.46;96905.11;108887;1251;94257;-71
2023/02/25 00:51:29;;;;;;;74.50;47.00;;;;;;;6.46;74.44;96903.77;108964;1251;94255;-71
2023/02/25 00:53:57;;;;;;;77.00;47.00;;;;;;;6.47;74.57;96893.84;108957;1251;110091;-71
2023/02/25 00:56:26;;;;;;;73.40;45.60;;;;;;;6.48;74.73;96885.08;108928;1251;102225;-71
2023/02/25 00:58:54;;;;;;;77.00;46.20;;;;;;;6.49;74.69;96879.69;108881;1251;107430;-71
2023/02/25 01:01:28;;;;;;;77.60;48.20;;;;;;;6.51;74.83;96872.19;108895;1251;94748;-70
2023/02/25 01:03:56;;;;;;;71.60;43.30;;;;;;;6.52;74.68;96869.02;108929;1251;94368;-71
2023/02/25 01:06:26;;;;;;;80.30;48.90;;;;;;;6.53;74.71;96857.19;108783;1251;109951;-71
2023/02/25 01:08:55;;;;;;;73.40;46.90;;;;;;;6.53;74.63;96850.82;108931;1251;103301;-71
2023/02/25 01:11:28;;;;;;;72.60;44.60;;;;;;;6.53;74.75;96849.06;108885;1251;107972;-71
2023/02/25 01:14:02;;;;;;;74.20;46.80;;;;;;;6.53;74.57;96852.40;108907;1251;94472;-70
2023/02/25 01:16:32;;;;;;;75.10;44.10;;;;;;;6.54;74.69;96847.40;108957;1251;94229;-71
2023/02/25 01:19:02;;;;;;;75.10;46.10;;;;;;;6.55;74.72;96842.86;108909;1251;109892;-71
2023/02/25 01:21:33;;;;;;;73.00;42.80;;;;;;;6.55;74.72;96840.92;108899;1251;100954;-71
2023/02/25 01:24:05;;;;;;;73.30;42.20;;;;;;;6.56;74.67;96839.11;108918;1252;107577;-71
2023/02/25 01:26:38;;;;;;;67.80;42.00;;;;;;;6.58;74.69;96834.77;108913;1251;94622;-70
2023/02/25 01:29:07;;;;;;;70.30;45.10;;;;;;;6.59;74.75;96828.12;108886;1253;94301;-70
2023/02/25 01:31:36;;;;;;;69.50;43.90;;;;;;;6.60;74.58;96820.45;108903;1251;109310;-70
2023/02/25 01:34:07;;;;;;;67.10;42.70;;;;;;;6.60;74.71;96808.59;108915;1251;102300;-71
2023/02/25 01:36:36;;;;;;;62.50;38.50;;;;;;;6.60;74.74;96802.11;108918;1251;107104;-71
2023/02/25 01:39:04;;;;;;;65.10;41.50;;;;;;;6.56;74.80;96793.14;108833;1251;94276;-71
2023/02/25 01:41:34;;;;;;;70.40;44.70;;;;;;;6.54;74.74;96787.90;108806;1253;94338;-71
2023/02/25 01:44:03;;;;;;;68.70;44.50;;;;;;;6.51;74.78;96782.00;108763;1251;109636;-71
2023/02/25 01:46:31;;;;;;;68.40;41.70;;;;;;;6.49;74.67;96779.55;108942;1251;102234;-71
2023/02/25 01:49:00;;;;;;;69.60;43.80;;;;;;;6.47;74.59;96774.97;108914;1251;107598;-71
2023/02/25 01:51:32;;;;;;;68.50;41.30;;;;;;;6.46;74.73;96773.19;108894;1251;94301;-69
2023/02/25 01:54:02;;;;;;;70.30;42.90;;;;;;;6.45;74.73;96766.16;108924;1251;94614;-71
2023/02/25 01:56:30;;;;;;;63.80;40.10;;;;;;;6.45;74.83;96759.55;108920;1251;109956;-70
2023/02/25 01:58:59;;;;;;;68.60;42.90;;;;;;;6.43;74.93;96749.25;108943;1251;101906;-71
2023/02/25 02:01:34;;;;;;;73.60;44.00;;;;;;;6.44;75.12;96740.75;108922;1251;107411;-71
2023/02/25 02:04:05;;;;;;;68.80;41.70;;;;;;;6.45;74.92;96740.30;108924;1251;94326;-69
2023/02/25 02:06:41;;;;;;;62.00;38.10;;;;;;;6.45;74.86;96740.28;108922;1251;94234;-71
2023/02/25 02:09:16;;;;;;;66.20;41.70;;;;;;;6.46;74.76;96738.66;108913;1251;109626;-69
2023/02/25 02:11:44;;;;;;;65.90;41.50;;;;;;;6.47;74.90;96744.86;108911;1251;103137;-71
2023/02/25 02:14:22;;;;;;;65.20;40.00;;;;;;;6.48;74.78;96741.40;108918;1252;107607;-70
2023/02/25 02:17:05;;;;;;;64.20;41.20;;;;;;;6.50;74.97;96740.02;108908;1251;94236;-71
2023/02/25 02:19:51;;;;;;;67.90;42.40;;;;;;;6.52;74.84;96729.41;108917;1251;94250;-70
2023/02/25 02:22:44;;;;;;;62.00;38.70;;;;;;;6.53;74.91;96728.04;108945;1251;109881;-70
2023/02/25 02:25:50;;;;;;;60.00;37.50;;;;;;;6.55;74.97;96721.75;108939;1251;101549;-71
2023/02/25 02:28:31;;;;;;;63.10;39.00;;;;;;;6.57;75.02;96716.95;108870;1252;107261;-70
2023/02/25 02:31:14;;;;;;;59.20;35.30;;;;;;;6.59;74.94;96717.48;108877;1251;94224;-70
2023/02/25 02:33:58;;;;;;;57.70;33.80;;;;;;;6.61;74.98;96710.25;108973;1251;94526;-71
2023/02/25 02:36:35;;;;;;;;;;;;;;;6.62;74.92;96703.83;108955;1251;109374;-70
2023/02/25 02:39:23;;;;;;;56.50;33.30;;;;;;;6.62;75.12;96703.17;108925;1251;102344;-71
2023/02/25 02:42:10;;;;;;;58.10;37.10;;;;;;;6.61;74.80;96690.20;108923;1251;107632;-71
2023/02/25 02:44:46;;;;;;;61.10;36.80;;;;;;;6.58;74.86;96673.09;108875;1251;94240;-70
2023/02/25 02:47:23;;;;;;;60.50;35.20;;;;;;;6.56;75.04;96667.95;108953;1251;94434;-68
2023/02/25 02:49:56;;;;;;;57.20;35.70;;;;;;;6.55;74.99;96667.29;108963;1251;109959;-71
2023/02/25 02:52:29;;;;;;;53.20;34.30;;;;;;;6.56;75.13;96667.59;108887;1251;102133;-70
2023/02/25 02:55:09;;;;;;;59.40;36.60;;;;;;;6.56;75.07;96660.89;108909;1251;107329;-71
2023/02/25 02:57:40;;;;;;;63.90;38.60;;;;;;;6.57;75.05;96662.98;108906;1251;95507;-71
2023/02/25 03:00:17;;;;;;;63.30;39.70;;;;;;;6.55;75.01;96659.42;108877;1252;94280;-71
2023/02/25 03:02:54;;;;;;;56.70;35.80;;;;;;;6.56;75.00;96662.99;108844;1251;109321;-71
2023/02/25 03:05:26;;;;;;;59.40;36.80;;;;;;;6.57;75.17;96664.92;108886;1252;102401;-70
2023/02/25 03:08:07;;;;;;;58.10;34.10;;;;;;;6.58;75.14;96664.48;108868;1251;107665;-71
2023/02/25 03:10:35;;;;;;;55.70;34.60;;;;;;;6.59;75.38;96660.33;108903;1251;94681;-71
2023/02/25 03:13:03;;;;;;;58.90;37.00;;;;;;;6.59;75.37;96666.48;108937;1251;94651;-70
2023/02/25 03:15:33;;;;;;;61.50;36.00;;;;;;;6.60;75.33;96671.80;108966;1251;109652;-71
2023/02/25 03:18:10;;;;;;;58.20;36.10;;;;;;;6.60;75.19;96665.98;108921;1251;101773;-71
2023/02/25 03:20:48;;;;;;;53.90;34.00;;;;;;;6.59;75.17;96673.20;108951;1251;107127;-71
2023/02/25 03:23:25;;;;;;;56.60;35.30;;;;;;;6.58;75.15;96678.04;108917;1251;94321;-71
2023/02/25 03:26:41;;;;;;;56.40;35.20;;;;;;;6.57;75.00;96684.24;108909;1251;94298;-71
2023/02/25 03:29:22;;;;;;;59.20;35.30;;;;;;;6.56;75.14;96688.94;108347;1258;109916;-71
2023/02/25 03:32:08;;;;;;;57.40;34.10;;;;;;;6.54;75.09;96689.23;108287;1258;102255;-70
2023/02/25 03:34:41;;;;;;;59.60;36.00;;;;;;;6.53;75.02;96693.38;108763;1251;107345;-68
2023/02/25 03:37:15;;;;;;;57.40;36.30;;;;;;;6.54;75.10;96700.70;108771;1251;94237;-71
2023/02/25 03:39:50;;;;;;;58.30;35.40;;;;;;;6.54;75.14;96703.05;108930;1251;94189;-72
2023/02/25 03:42:24;;;;;;;59.90;36.00;;;;;;;6.52;75.17;96707.40;108876;1251;110222;-69
2023/02/25 03:44:55;;;;;;;55.90;36.30;;;;;;;6.52;75.22;96714.31;108911;1251;102229;-71
2023/02/25 03:47:28;;;;;;;53.20;32.60;;;;;;;6.51;75.63;96742.94;108910;1251;107122;-71
2023/02/25 03:50:11;;;;;;;36.50;18.40;;;;;;;6.42;75.72;96768.05;108940;1251;94247;-71
2023/02/25 03:52:40;;;;;;;33.70;16.30;;;;;;;6.19;75.03;96766.08;108950;1251;94295;-71
2023/02/25 03:55:09;;;;;;;28.20;13.80;;;;;;;6.02;74.83;96762.48;108891;1252;109704;-71
2023/02/25 03:57:42;;;;;;;29.80;14.10;;;;;;;5.91;74.99;96763.64;108797;1251;102212;-70
2023/02/25 04:00:26;;;;;;;26.60;12.70;;;;;;;5.84;75.03;96766.05;108902;1251;107617;-71
2023/02/25 04:02:54;;;;;;;26.10;12.00;;;;;;;5.80;75.06;96772.94;108899;1252;94250;-71
2023/02/25 04:05:26;;;;;;;23.40;11.10;;;;;;;5.78;75.11;96777.80;108937;1252;94250;-70
2023/02/25 04:07:56;;;;;;;23.80;11.40;;;;;;;5.76;75.34;96780.52;108901;1253;110002;-71
2023/02/25 04:10:25;;;;;;;25.00;11.30;;;;;;;5.73;75.07;96788.84;108850;1252;103478;-70
2023/02/25 04:12:52;;;;;;;18.80;7.30;;;;;;;5.69;74.94;96800.59;108879;1254;107214;-70
2023/02/25 04:15:21;;;;;;;14.80;6.30;;;;;;;5.58;75.47;96801.53;108919;1251;94283;-71
2023/02/25 04:17:49;;;;;;;19.50;5.90;;;;;;;5.43;75.12;96807.61;108954;1251;94210;-69
2023/02/25 04:20:18;;;;;;;13.20;5.60;;;;;;;5.26;75.16;96810.34;108949;1251;109367;-70
2023/02/25 04:22:46;;;;;;;13.60;5.70;;;;;;;5.15;75.02;96805.16;108970;1251;102145;-71
2023/02/25 04:25:14;;;;;;;13.50;5.30;;;;;;;5.07;75.32;96810.22;108873;1251;107184;-70
2023/02/25 04:27:41;;;;;;;15.20;5.90;;;;;;;4.99;75.22;96805.11;108925;1251;94263;-71
2023/02/25 04:30:10;;;;;;;16.30;6.40;;;;;;;4.92;75.17;96801.60;108952;1252;94222;-71
2023/02/25 04:32:38;;;;;;;15.00;5.60;;;;;;;4.87;75.12;96795.36;108841;1251;109936;-70
2023/02/25 04:35:10;;;;;;;17.20;6.60;;;;;;;4.83;75.08;96798.00;108916;1251;102236;-71
2023/02/25 04:37:39;;;;;;;16.90;7.00;;;;;;;4.76;75.47;96801.76;108890;1251;107077;-71
2023/02/25 04:40:13;;;;;;;17.90;6.90;;;;;;;4.69;75.53;96791.99;108913;1251;94326;-71
2023/02/25 04:42:42;;;;;;;18.00;7.20;;;;;;;4.63;75.59;96778.64;108909;1253;94257;-71
2023/02/25 04:45:11;;;;;;;17.50;7.70;;;;;;;4.59;75.40;96775.51;108894;1251;109944;-71
2023/02/25 04:47:39;;;;;;;17.10;6.70;;;;;;;4.56;75.48;96765.02;108766;1251;101930;-71
2023/02/25 04:50:08;;;;;;;16.40;6.60;;;;;;;4.56;75.27;96750.23;108933;1251;107626;-71
2023/02/25 04:52:36;;;;;;;19.70;7.30;;;;;;;4.58;75.29;96736.77;108925;1251;94524;-71
2023/02/25 04:55:05;;;;;;;16.90;6.80;;;;;;;4.60;75.11;96740.46;108968;1251;94238;-71
2023/02/25 04:57:33;;;;;;;19.40;7.60;;;;;;;4.60;75.11;96740.29;108932;1251;109879;-70
2023/02/25 05:00:01;;;;;;;19.80;7.70;;;;;;;4.62;75.11;96743.42;108975;1251;101936;-71
2023/02/25 05:02:31;;;;;;;18.80;7.30;;;;;;;4.65;75.21;96735.96;108902;1251;106250;-71
2023/02/25 05:04:59;;;;;;;20.90;7.90;;;;;;;4.67;75.13;96732.48;108917;1251;94277;-72
2023/02/25 05:07:27;;;;;;;16.80;7.20;;;;;;;4.71;75.41;96734.58;108904;1251;94257;-71
2023/02/25 05:09:54;;;;;;;23.10;9.40;;;;;;;4.73;75.20;96736.17;108948;1251;109318;-71
2023/02/25 05:12:22;;;;;;;23.70;9.50;;;;;;;4.74;75.00;96735.24;108892;1251;102507;-71
2023/02/25 05:14:51;;;;;;;28.60;11.20;;;;;;;4.74;75.26;96735.38;108891;1253;107555;-71
2023/02/25 05:17:18;;;;;;;25.10;10.80;;;;;;;4.76;75.09;96737.80;108944;1251;94226;-71
2023/02/25 05:19:46;;;;;;;19.70;8.20;;;;;;;4.79;75.12;96737.77;108971;1251;94329;-71
2023/02/25 05:22:14;;;;;;;30.90;14.90;;;;;;;4.80;75.15;96735.95;108945;1251;109901;-71
2023/02/25 05:24:42;;;;;;;34.20;17.90;;;;;;;4.82;75.35;96734.53;108911;1251;102194;-70
2023/02/25 05:27:10;;;;;;;38.10;22.10;;;;;;;4.86;75.12;96738.98;108886;1251;107223;-71
2023/02/25 05:29:38;;;;;;;31.60;16.90;;;;;;;4.88;75.37;96734.72;108887;1251;94594;-71
2023/02/25 05:32:06;;;;;;;37.70;21.40;;;;;;;4.91;75.38;96734.50;108923;1251;94247;-71
2023/02/25 05:34:34;;;;;;;28.20;14.40;;;;;;;4.92;75.27;96737.88;108899;1251;109794;-71
2023/02/25 05:37:02;;;;;;;25.70;13.20;;;;;;;4.93;75.33;96744.80;108942;1251;102358;-71
2023/02/25 05:39:30;;;;;;;33.10;16.50;;;;;;;4.97;75.26;96745.05;108897;1251;107652;-71
2023/02/25 05:41:57;;;;;;;21.00;8.80;;;;;;;4.98;75.17;96748.94;108884;1251;94311;-71
2023/02/25 05:44:26;;;;;;;18.00;7.30;;;;;;;4.97;75.27;96752.44;108913;1254;94234;-71
2023/02/25 05:46:54;;;;;;;20.50;8.60;;;;;;;4.96;75.22;96761.30;108919;1251;109891;-70
2023/02/25 05:49:22;;;;;;;19.80;8.00;;;;;;;4.96;75.10;96766.54;108925;1251;101989;-71
2023/02/25 05:51:49;;;;;;;18.20;7.20;;;;;;;4.93;75.12;96771.13;108856;1251;107749;-71
2023/02/25 05:54:17;;;;;;;21.20;7.90;;;;;;;4.93;75.11;96771.19;108776;1251;94623;-71
2023/02/25 05:56:45;;;;;;;21.10;8.60;;;;;;;4.89;75.33;96781.13;108749;1252;94427;-71
2023/02/25 05:59:15;;;;;;;20.10;8.40;;;;;;;4.83;75.42;96787.48;108757;1253;110409;-70
2023/02/25 06:01:43;;;;;;;19.20;8.60;;;;;;;4.78;75.45;96790.70;108767;1251;101960;-71
2023/02/25 06:04:11;;;;;;;24.10;9.30;;;;;;;4.74;75.78;96814.94;108731;1251;107616;-70
2023/02/25 06:06:40;;;;;;;18.80;8.40;;;;;;;4.66;76.04;96830.34;108736;1252;94537;-70
2023/02/25 06:09:09;;;;;;;16.80;6.60;;;;;;;4.53;76.34;96848.49;108788;1252;94229;-70
2023/02/25 06:11:37;;;;;;;15.00;6.30;;;;;;;4.38;76.02;96857.60;108884;1251;109630;-70
2023/02/25 06:14:05;;;;;;;15.00;5.80;;;;;;;4.26;76.30;96860.14;108913;1252;102232;-70
2023/02/25 06:16:32;;;;;;;14.80;6.00;;;;;;;4.15;76.25;96862.96;108876;1252;107306;-69
2023/02/25 06:19:01;;;;;;;16.10;7.90;;;;;;;4.05;76.35;96869.61;108918;1254;94289;-70
2023/02/25 06:21:30;;;;;;;13.50;5.30;;;;;;;3.94;76.32;96869.94;108833;1252;94310;-70
2023/02/25 06:23:58;;;;;;;14.80;6.30;;;;;;;3.86;75.99;96873.71;108866;1251;109940;-70
2023/02/25 06:26:26;;;;;;;14.40;6.60;;;;;;;3.80;76.30;96878.08;108925;1251;101583;-70
2023/02/25 06:28:54;;;;;;;13.70;6.20;;;;;;;3.75;76.15;96877.92;108909;1252;107625;-70
2023/02/25 06:31:23;;;;;;;16.90;7.10;;;;;;;3.73;75.93;96883.00;108839;1253;94214;-70
2023/02/25 06:33:53;;;;;;;11.20;5.30;;;;;;;3.68;76.10;96883.06;108647;1251;94327;-70
2023/02/25 06:36:21;;;;;;;12.30;5.50;;;;;;;3.61;76.16;96883.60;108782;1253;109932;-70
2023/02/25 06:38:50;;;;;;;14.40;5.40;;;;;;;3.59;75.91;96881.81;108770;1251;102268;-69
2023/02/25 06:41:20;;;;;;;13.60;5.30;;;;;;;3.58;75.95;96886.27;108744;1252;107685;-70
2023/02/25 06:43:51;;;;;;;11.90;4.80;;;;;;;3.54;76.20;96892.57;108778;1252;94642;-71
2023/02/25 06:46:22;;;;;;;13.90;5.60;;;;;;;3.48;76.22;96897.54;108685;1252;94749;-69
2023/02/25 06:48:51;;;;;;;15.40;6.80;;;;;;;3.46;76.40;96904.23;108766;1253;110019;-72
2023/02/25 06:51:21;;;;;;;13.50;6.10;;;;;;;3.43;76.19;96902.30;108767;1253;101491;-70
2023/02/25 06:53:49;;;;;;;18.60;7.20;;;;;;;3.42;75.74;96893.96;108797;1251;108364;-70
2023/02/25 06:56:19;;;;;;;16.40;7.00;;;;;;;3.45;75.91;96888.90;108789;1251;94668;-70
2023/02/25 06:58:47;;;;;;;27.20;13.40;;;;;;;3.47;75.65;96886.23;108782;1252;94264;-69
2023/02/25 07:01:15;;;;;;;31.10;15.50;;;;;;;3.48;75.72;96890.95;108763;1252;110122;-69
2023/02/25 07:03:44;;;;;;;26.30;13.10;;;;;;;3.45;75.58;96892.91;108771;1253;101892;-68
2023/02/25 07:06:15;;;;;;;21.30;10.10;;;;;;;3.43;75.74;96882.02;108838;1251;107282;-71
2023/02/25 07:08:44;;;;;;;15.40;7.10;;;;;;;3.42;75.55;96888.95;108869;1251;94564;-73
2023/02/25 07:11:20;;;;;;;16.10;6.70;;;;;;;3.42;75.41;96901.04;108940;1251;94235;-72
2023/02/25 07:13:49;;;;;;;15.40;6.10;;;;;;;3.40;75.48;96909.19;108890;1251;109592;-72
2023/02/25 07:16:17;;;;;;;17.40;6.40;;;;;;;3.41;75.64;96908.64;108927;1251;102320;-71
2023/02/25 07:18:45;;;;;;;16.20;6.10;;;;;;;3.40;75.57;96902.25;108848;1251;107646;-70
2023/02/25 07:21:14;;;;;;;14.30;5.70;;;;;;;3.39;75.56;96897.21;108882;1253;94292;-72
2023/02/25 07:23:43;;;;;;;26.50;10.90;;;;;;;3.40;75.51;96892.22;108851;1251;94251;-71
2023/02/25 07:26:13;;;;;;;55.20;26.40;;;;;;;3.42;75.80;96898.91;108821;1253;110031;-72
2023/02/25 07:28:42;;;;;;;39.60;18.20;;;;;;;3.44;75.59;96916.29;108880;1251;101273;-72
2023/02/25 07:31:16;;;;;;;49.30;23.20;;;;;;;3.47;75.45;96923.25;108872;1256;107706;-74
2023/02/25 07:33:44;;;;;;;36.70;14.60;;;;;;;3.50;75.54;96924.73;108901;1253;94238;-72
2023/02/25 07:36:13;;;;;;;40.90;16.20;;;;;;;3.55;75.47;96931.55;108898;1253;94283;-72
2023/02/25 07:38:41;;;;;;;40.40;16.10;;;;;;;3.60;75.73;96935.74;108886;1253;109909;-73
2023/02/25 07:41:13;;;;;;;34.10;12.70;;;;;;;3.64;75.47;96933.29;108898;1252;102227;-72
2023/02/25 07:43:42;;;;;;;35.30;15.00;;;;;;;3.70;75.64;96926.70;108883;1252;107656;-72
2023/02/25 07:46:10;;;;;;;27.20;12.60;;;;;;;3.72;75.63;96935.98;108925;1254;94250;-73
2023/02/25 07:48:38;;;;;;;20.10;9.40;;;;;;;3.80;75.43;96926.79;108929;1253;94343;-71
2023/02/25 07:51:12;;;;;;;20.20;8.80;;;;;;;3.89;75.63;96930.98;108768;1253;109448;-70
2023/02/25 07:53:40;;;;;;;19.50;8.90;;;;;;;3.99;75.56;96932.52;108796;1251;102828;-69
2023/02/25 07:56:10;;;;;;;21.20;9.20;;;;;;;4.04;75.49;96935.42;108842;1254;107630;-71
2023/02/25 07:58:38;;;;;;;20.30;9.10;;;;;;;4.09;75.55;96929.79;108687;1252;94351;-71
2023/02/25 08:01:08;;;;;;;21.00;9.30;;;;;;;4.15;75.65;96928.55;108931;1252;94253;-76
2023/02/25 08:03:37;;;;;;;21.00;9.40;;;;;;;4.21;75.22;96920.92;108894;1251;109577;-68
2023/02/25 08:06:08;;;;;;;19.90;8.60;;;;;;;4.27;75.59;96925.19;108825;1251;103494;-73
2023/02/25 08:08:37;;;;;;;21.80;9.40;;;;;;;4.37;75.48;96923.50;108826;1252;108013;-73
2023/02/25 08:11:09;;;;;;;20.60;8.90;;;;;;;4.47;75.68;96923.73;108842;1253;94398;-72
2023/02/25 08:13:38;;;;;;;20.20;8.20;;;;;;;4.55;75.34;96919.35;108698;1252;150764;-72
2023/02/25 08:16:13;;;;;;;18.50;9.00;;;;;;;4.59;75.17;96921.70;108887;1253;109937;-73
2023/02/25 08:18:42;;;;;;;20.90;10.50;;;;;;;4.56;75.17;96914.17;108830;1253;101984;-73
2023/02/25 08:21:11;;;;;;;22.90;11.10;;;;;;;4.57;75.36;96904.65;108861;1253;107103;-71
2023/02/25 08:23:39;;;;;;;25.00;11.20;;;;;;;4.62;75.21;96893.85;108801;1251;94308;-72
2023/02/25 08:26:10;;;;;;;22.90;10.90;;;;;;;4.65;75.08;96895.79;108883;1253;94285;-71
2023/02/25 08:28:38;;;;;;;20.50;10.00;;;;;;;4.63;74.90;96896.41;108875;1253;110677;-72
2023/02/25 08:31:10;;;;;;;26.90;13.50;;;;;;;4.67;75.23;96897.20;108795;1253;101499;-71
2023/02/25 08:33:42;;;;;;;22.70;10.50;;;;;;;4.72;75.27;96901.09;108723;1254;107636;-71
2023/02/25 08:36:16;;;;;;;21.50;9.90;;;;;;;4.77;75.34;96900.54;108773;1253;94246;-71
2023/02/25 08:38:44;;;;;;;20.80;10.40;;;;;;;4.81;75.09;96895.30;108781;1254;94611;-74
2023/02/25 08:41:12;;;;;;;22.70;10.00;;;;;;;4.85;74.89;96888.48;108886;1251;109930;-69
2023/02/25 08:43:40;;;;;;;21.60;10.70;;;;;;;4.89;75.07;96892.91;108909;1253;102830;-72
2023/02/25 08:46:09;;;;;;;24.00;12.20;;;;;;;4.94;75.05;96893.71;108856;1254;107627;-71
2023/02/25 08:48:37;;;;;;;21.50;9.80;;;;;;;4.97;75.04;96893.12;108685;1254;94272;-72
2023/02/25 08:51:07;;;;;;;28.10;12.50;;;;;;;4.96;74.52;96896.16;108920;1254;94247;-73
2023/02/25 08:53:37;;;;;;;24.00;12.70;;;;;;;4.93;74.65;96892.56;108892;1254;109419;-72
2023/02/25 08:56:09;;;;;;;34.50;15.90;;;;;;;4.94;74.87;96888.61;108886;1254;102346;-71
2023/02/25 08:58:38;;;;;;;33.20;16.50;;;;;;;4.99;74.69;96889.91;108825;1253;107663;-72
2023/02/25 09:01:15;;;;;;;24.40;11.70;;;;;;;5.02;74.75;96888.41;108909;1253;94213;-73
2023/02/25 09:03:51;;;;;;;24.20;12.00;;;;;;;4.99;74.27;96883.92;108927;1256;94316;-71
2023/02/25 09:06:22;;;;;;;25.50;11.40;;;;;;;5.05;74.70;96886.11;108966;1253;109923;-69
2023/02/25 09:08:52;;;;;;;22.50;10.60;;;;;;;5.08;74.79;96885.00;108936;1254;102216;-70
2023/02/25 09:11:20;;;;;;;20.30;9.20;;;;;;;5.12;74.63;96892.36;108857;1251;107293;-70
2023/02/25 09:13:50;;;;;;;20.80;9.30;;;;;;;5.07;74.01;96900.84;108760;1253;94263;-69
2023/02/25 09:16:18;;;;;;;24.00;10.20;;;;;;;5.07;74.38;96900.17;108943;1251;94237;-71
2023/02/25 09:18:50;;;;;;;20.90;10.00;;;;;;;5.10;74.19;96902.51;108977;1251;109584;-70
2023/02/25 09:21:19;;;;;;;24.10;10.80;;;;;;;5.09;74.23;96903.65;108932;1251;101503;-74
2023/02/25 09:23:47;;;;;;;24.60;11.00;;;;;;;5.08;74.49;96905.36;108939;1253;107650;-74
2023/02/25 09:26:15;;;;;;;23.00;9.80;;;;;;;5.09;74.60;96909.64;108923;1254;94655;-80
2023/02/25 09:28:43;;;;;;;22.30;10.30;;;;;;;5.09;74.43;96908.41;108887;1253;94261;-72
2023/02/25 09:31:11;;;;;;;25.40;10.20;;;;;;;5.10;74.47;96910.30;108896;1251;109872;-72
2023/02/25 09:33:41;;;;;;;23.50;10.00;;;;;;;5.15;74.38;96916.30;108880;1253;102046;-72
2023/02/25 09:36:12;;;;;;;25.10;11.50;;;;;;;5.24;74.67;96915.21;108868;1251;107585;-72
2023/02/25 09:38:41;;;;;;;25.40;11.60;;;;;;;5.38;74.62;96907.84;108725;1252;94565;-72
2023/02/25 09:41:29;;;;;;;25.60;11.10;;;;;;;5.49;74.50;96899.55;108936;1253;94296;-72
2023/02/25 09:44:04;;;;;;;22.00;9.50;;;;;;;5.52;74.04;96889.84;108978;1251;108515;-71
2023/02/25 09:46:35;;;;;;;25.30;11.30;;;;;;;5.54;73.41;96895.15;108908;1252;102062;-73
2023/02/25 09:49:33;;;;;;;21.80;9.90;;;;;;;5.56;73.78;96888.63;108852;1252;107243;-73
2023/02/25 09:52:17;;;;;;;23.30;9.70;;;;;;;5.62;73.89;96890.71;108876;1251;94281;-73
2023/02/25 09:54:49;;;;;;;22.10;10.20;;;;;;;5.64;73.77;96898.30;108942;1250;94414;-73
2023/02/25 09:57:20;;;;;;;22.90;9.70;;;;;;;5.62;73.89;96888.94;108915;1253;109650;-72
2023/02/25 09:59:52;;;;;;;19.90;8.90;;;;;;;5.59;73.78;96898.23;108772;1251;102247;-81
2023/02/25 10:02:30;;;;;;;25.50;10.10;;;;;;;5.51;73.50;96891.86;108877;1251;108342;-76
2023/02/25 10:05:17;;;;;;;21.30;9.50;;;;;;;5.54;73.69;96893.89;108934;1253;94578;-68
2023/02/25 10:08:01;;;;;;;19.80;8.70;;;;;;;5.50;73.69;96901.71;108939;1251;94310;-68
2023/02/25 10:10:51;;;;;;;21.30;9.20;;;;;;;5.50;73.45;96903.35;108945;1254;109898;-70
2023/02/25 10:13:21;;;;;;;21.90;9.90;;;;;;;5.49;73.32;96891.32;108893;1252;101850;-70
2023/02/25 10:16:23;;;;;;;26.90;11.50;;;;;;;5.50;73.26;96883.42;108927;1251;107626;-66
2023/02/25 10:19:04;;;;;;;24.70;11.20;;;;;;;5.49;73.89;96897.59;108938;1254;94168;-75
2023/02/25 10:21:48;;;;;;;24.20;10.30;;;;;;;5.49;73.19;96899.79;108870;1251;94290;-66
2023/02/25 10:24:22;;;;;;;23.10;11.40;;;;;;;5.48;73.24;96895.98;108827;1252;109558;-70
2023/02/25 10:26:58;;;;;;;20.70;9.40;;;;;;;5.41;73.22;96895.52;108765;1250;102160;-70
2023/02/25 10:29:34;;;;;;;23.10;10.90;;;;;;;5.25;73.06;96894.79;108703;1252;107083;-67
2023/02/25 10:32:15;;;;;;;21.60;10.00;;;;;;;5.12;73.10;96899.77;108765;1251;94381;-72
2023/02/25 10:34:43;;;;;;;21.40;9.00;;;;;;;5.01;73.33;96908.23;108758;1254;94311;-74
2023/02/25 10:37:25;;;;;;;18.80;8.10;;;;;;;4.85;72.80;96921.09;108745;1251;109873;-73
2023/02/25 10:39:57;;;;;;;17.20;7.20;;;;;;;4.63;72.84;96922.44;108736;1254;102610;-70
2023/02/25 10:42:26;;;;;;;19.00;8.00;;;;;;;4.44;73.03;96929.73;108830;1253;107354;-70
2023/02/25 10:45:00;;;;;;;17.90;6.80;;;;;;;4.19;73.12;96935.79;108606;1254;94444;-72
2023/02/25 10:47:33;;;;;;;15.10;5.80;;;;;;;3.98;73.66;96947.31;108829;1252;94226;-74
2023/02/25 10:50:21;;;;;;;9.60;4.80;;;;;;;3.77;74.58;96961.95;108809;1251;109595;-74
2023/02/25 10:53:11;;;;;;;11.60;4.40;;;;;;;3.52;75.12;96966.15;108713;1254;101920;-74
2023/02/25 10:55:42;;;;;;;17.30;7.20;;;;;;;3.32;74.47;96960.66;108724;1253;107137;-74
2023/02/25 10:58:28;;;;;;;18.90;7.30;;;;;;;3.19;74.16;96961.98;108774;1254;94561;-74
2023/02/25 11:01:06;;;;;;;23.30;8.90;;;;;;;3.09;74.32;96961.16;108733;1252;94438;-74
2023/02/25 11:03:57;;;;;;;26.10;11.00;;;;;;;3.03;74.24;96960.57;108782;1251;109604;-74
2023/02/25 11:06:31;;;;;;;27.90;11.90;;;;;;;2.91;73.96;96955.70;108860;1251;101868;-74
2023/02/25 11:08:59;;;;;;;;;;;;;;;2.87;73.84;96940.93;108810;1254;106956;-73
2023/02/25 11:11:30;;;;;;;29.30;15.70;;;;;;;2.99;74.02;96937.39;108855;1251;94274;-73
2023/02/25 11:13:59;;;;;;;15.30;6.20;;;;;;;3.11;73.95;96932.45;108909;1252;94264;-73
2023/02/25 11:16:29;;;;;;;12.70;5.40;;;;;;;3.15;73.92;96930.61;108875;1254;109365;-74
2023/02/25 11:19:01;;;;;;;30.20;14.20;;;;;;;3.11;73.80;96929.28;108901;1254;102222;-77
2023/02/25 11:21:33;;;;;;;23.00;9.30;;;;;;;3.05;73.85;96924.36;108906;1251;106890;-74
2023/02/25 11:24:16;;;;;;;26.20;10.60;;;;;;;3.03;73.72;96921.92;108895;1254;94297;-74
2023/02/25 11:26:47;;;;;;;24.80;10.80;;;;;;;3.04;73.71;96916.56;108858;1253;94532;-74
2023/02/25 11:29:19;;;;;;;24.70;10.80;;;;;;;3.06;73.60;96911.17;108864;1251;109412;-73
2023/02/25 11:32:07;;;;;;;21.90;8.90;;;;;;;3.08;73.76;96903.81;108860;1252;101975;-73
2023/02/25 11:34:54;;;;;;;21.40;9.90;;;;;;;3.10;73.86;96903.63;108901;1254;107371;-74
2023/02/25 11:37:43;;;;;;;16.60;7.30;;;;;;;3.10;73.90;96901.70;108888;1251;95430;-74
2023/02/25 11:40:23;;;;;;;20.20;9.00;;;;;;;3.17;73.91;96897.83;108989;1252;94310;-74